sensor_id;sensor_type;location;lat;lon;timestamp;pressure;altitude;pressure_sealevel;temperature;humidity
37878;BME280;23715;53.652;8.516;2022-07-19T00:00:46;102084.53;;;19.72;100.00
37878;BME280;23715;53.652;8.516;2022-07-19T00:05:47;102086.65;;;19.82;100.00
37878;BME280;23715;53.652;8.516;2022-07-19T00:10:47;102088.94;;;19.68;100.00
37878;BME280;23715;53.652;8.516;2022-07-19T00:15:47;102081.31;;;19.72;100.00
37878;BME280;23715;53.652;8.516;2022-07-19T00:20:48;102078.45;;;19.56;100.00
37878;BME280;23715;53.652;8.516;2022-07-19T00:25:48;102086.97;;;19.53;100.00
37878;BME280;23715;53.652;8.516;2022-07-19T00:30:49;102083.03;;;19.51;100.00
37878;BME280;23715;53.652;8.516;2022-07-19T00:35:48;102081.73;;;19.11;100.00
37878;BME280;23715;53.652;8.516;2022-07-19T00:40:49;102094.55;;;18.97;100.00
37878;BME280;23715;53.652;8.516;2022-07-19T00:45:49;102089.39;;;19.11;100.00
37878;BME280;23715;53.652;8.516;2022-07-19T00:50:51;102088.50;;;19.29;100.00
37878;BME280;23715;53.652;8.516;2022-07-19T00:55:52;102085.89;;;19.45;100.00
37878;BME280;23715;53.652;8.516;2022-07-19T01:00:54;102083.48;;;19.42;100.00
37878;BME280;23715;53.652;8.516;2022-07-19T01:05:54;102092.30;;;18.92;100.00
37878;BME280;23715;53.652;8.516;2022-07-19T01:10:55;102096.82;;;18.69;100.00
37878;BME280;23715;53.652;8.516;2022-07-19T01:15:56;102103.63;;;18.69;100.00
37878;BME280;23715;53.652;8.516;2022-07-19T01:20:57;102107.30;;;18.46;100.00
37878;BME280;23715;53.652;8.516;2022-07-19T01:25:57;102104.45;;;18.66;100.00
37878;BME280;23715;53.652;8.516;2022-07-19T01:30:58;102094.94;;;18.70;100.00
37878;BME280;23715;53.652;8.516;2022-07-19T01:35:58;102098.05;;;18.89;100.00
37878;BME280;23715;53.652;8.516;2022-07-19T01:40:59;102103.63;;;18.69;100.00
37878;BME280;23715;53.652;8.516;2022-07-19T01:45:59;102097.45;;;18.63;100.00
37878;BME280;23715;53.652;8.516;2022-07-19T01:50:59;102094.72;;;18.63;100.00
37878;BME280;23715;53.652;8.516;2022-07-19T01:56:00;102096.86;;;18.56;100.00
37878;BME280;23715;53.652;8.516;2022-07-19T02:01:01;102094.23;;;18.36;100.00
37878;BME280;23715;53.652;8.516;2022-07-19T02:06:02;102099.47;;;18.61;100.00
37878;BME280;23715;53.652;8.516;2022-07-19T02:11:03;102094.87;;;18.62;100.00
37878;BME280;23715;53.652;8.516;2022-07-19T02:16:05;102093.32;;;18.59;100.00
37878;BME280;23715;53.652;8.516;2022-07-19T02:21:05;102087.33;;;18.56;100.00
37878;BME280;23715;53.652;8.516;2022-07-19T02:26:06;102092.17;;;18.34;100.00
37878;BME280;23715;53.652;8.516;2022-07-19T02:31:06;102094.56;;;18.33;100.00
37878;BME280;23715;53.652;8.516;2022-07-19T02:36:07;102096.58;;;18.31;100.00
37878;BME280;23715;53.652;8.516;2022-07-19T02:41:07;102095.30;;;18.39;100.00
37878;BME280;23715;53.652;8.516;2022-07-19T02:46:07;102091.80;;;18.29;100.00
37878;BME280;23715;53.652;8.516;2022-07-19T02:51:11;102096.31;;;18.24;100.00
37878;BME280;23715;53.652;8.516;2022-07-19T02:56:12;102100.97;;;18.14;100.00
37878;BME280;23715;53.652;8.516;2022-07-19T03:01:12;102106.09;;;17.89;100.00
37878;BME280;23715;53.652;8.516;2022-07-19T03:06:15;102117.27;;;17.86;100.00
37878;BME280;23715;53.652;8.516;2022-07-19T03:11:15;102122.72;;;18.00;100.00
37878;BME280;23715;53.652;8.516;2022-07-19T03:16:16;102110.56;;;17.94;100.00
37878;BME280;23715;53.652;8.516;2022-07-19T03:21:16;102119.30;;;17.98;100.00
37878;BME280;23715;53.652;8.516;2022-07-19T03:26:16;102113.32;;;18.08;100.00
37878;BME280;23715;53.652;8.516;2022-07-19T03:31:17;102117.78;;;17.86;100.00
37878;BME280;23715;53.652;8.516;2022-07-19T03:36:17;102123.70;;;17.75;100.00
37878;BME280;23715;53.652;8.516;2022-07-19T03:41:17;102122.62;;;17.92;100.00
37878;BME280;23715;53.652;8.516;2022-07-19T03:46:17;102121.57;;;18.30;100.00
37878;BME280;23715;53.652;8.516;2022-07-19T03:51:20;102109.89;;;18.06;100.00
37878;BME280;23715;53.652;8.516;2022-07-19T03:56:20;102114.53;;;18.24;100.00
37878;BME280;23715;53.652;8.516;2022-07-19T04:01:20;102113.70;;;18.13;100.00
37878;BME280;23715;53.652;8.516;2022-07-19T04:06:20;102118.81;;;18.12;100.00
37878;BME280;23715;53.652;8.516;2022-07-19T04:11:20;102125.34;;;18.06;100.00
37878;BME280;23715;53.652;8.516;2022-07-19T04:16:21;102127.59;;;18.06;100.00
37878;BME280;23715;53.652;8.516;2022-07-19T04:21:21;102130.03;;;18.13;100.00
37878;BME280;23715;53.652;8.516;2022-07-19T04:26:22;102129.62;;;17.94;100.00
37878;BME280;23715;53.652;8.516;2022-07-19T04:31:22;102133.88;;;18.07;100.00
37878;BME280;23715;53.652;8.516;2022-07-19T04:36:22;102140.30;;;18.16;100.00
37878;BME280;23715;53.652;8.516;2022-07-19T04:41:23;102140.64;;;18.17;100.00
37878;BME280;23715;53.652;8.516;2022-07-19T04:46:25;102141.80;;;18.42;100.00
37878;BME280;23715;53.652;8.516;2022-07-19T04:51:26;102145.20;;;18.71;100.00
37878;BME280;23715;53.652;8.516;2022-07-19T04:56:26;102137.44;;;19.08;100.00
37878;BME280;23715;53.652;8.516;2022-07-19T05:01:26;102135.50;;;19.41;100.00
37878;BME280;23715;53.652;8.516;2022-07-19T05:06:27;102119.78;;;19.87;100.00
37878;BME280;23715;53.652;8.516;2022-07-19T05:11:27;102127.08;;;19.56;100.00
37878;BME280;23715;53.652;8.516;2022-07-19T05:16:27;102134.90;;;19.55;100.00
37878;BME280;23715;53.652;8.516;2022-07-19T05:21:27;102144.63;;;19.76;100.00
37878;BME280;23715;53.652;8.516;2022-07-19T05:26:28;102157.21;;;19.99;100.00
37878;BME280;23715;53.652;8.516;2022-07-19T05:31:27;102150.89;;;20.33;100.00
37878;BME280;23715;53.652;8.516;2022-07-19T05:36:28;102151.66;;;20.51;100.00
37878;BME280;23715;53.652;8.516;2022-07-19T05:41:29;102160.38;;;20.55;100.00
37878;BME280;23715;53.652;8.516;2022-07-19T05:46:30;102157.06;;;20.85;100.00
37878;BME280;23715;53.652;8.516;2022-07-19T05:51:30;102145.14;;;21.23;100.00
37878;BME280;23715;53.652;8.516;2022-07-19T05:56:31;102133.50;;;21.34;100.00
37878;BME280;23715;53.652;8.516;2022-07-19T06:01:34;102132.48;;;21.51;100.00
37878;BME280;23715;53.652;8.516;2022-07-19T06:06:36;102132.78;;;21.81;100.00
37878;BME280;23715;53.652;8.516;2022-07-19T06:11:36;102135.04;;;22.21;100.00
37878;BME280;23715;53.652;8.516;2022-07-19T06:16:37;102135.71;;;22.23;100.00
37878;BME280;23715;53.652;8.516;2022-07-19T06:21:39;102141.14;;;22.44;100.00
37878;BME280;23715;53.652;8.516;2022-07-19T06:26:40;102135.95;;;22.80;100.00
37878;BME280;23715;53.652;8.516;2022-07-19T06:31:40;102126.42;;;22.95;100.00
37878;BME280;23715;53.652;8.516;2022-07-19T06:36:40;102114.84;;;23.31;100.00
37878;BME280;23715;53.652;8.516;2022-07-19T06:41:40;102100.47;;;23.63;100.00
37878;BME280;23715;53.652;8.516;2022-07-19T06:46:43;102095.58;;;23.88;100.00
37878;BME280;23715;53.652;8.516;2022-07-19T06:51:44;102089.72;;;24.16;100.00
37878;BME280;23715;53.652;8.516;2022-07-19T06:56:43;102082.10;;;24.33;100.00
37878;BME280;23715;53.652;8.516;2022-07-19T07:01:43;102075.64;;;24.67;100.00
37878;BME280;23715;53.652;8.516;2022-07-19T07:06:44;102059.66;;;24.88;100.00
37878;BME280;23715;53.652;8.516;2022-07-19T07:11:43;102062.67;;;24.93;100.00
37878;BME280;23715;53.652;8.516;2022-07-19T07:16:44;102058.77;;;25.20;100.00
37878;BME280;23715;53.652;8.516;2022-07-19T07:21:45;102054.70;;;25.26;100.00
37878;BME280;23715;53.652;8.516;2022-07-19T07:26:46;102048.73;;;25.33;100.00
37878;BME280;23715;53.652;8.516;2022-07-19T07:31:45;102037.72;;;25.51;100.00
37878;BME280;23715;53.652;8.516;2022-07-19T07:36:46;102030.95;;;25.71;100.00
37878;BME280;23715;53.652;8.516;2022-07-19T07:41:46;102029.45;;;25.86;100.00
37878;BME280;23715;53.652;8.516;2022-07-19T07:46:47;102030.04;;;25.81;100.00
37878;BME280;23715;53.652;8.516;2022-07-19T07:51:48;102023.84;;;25.90;100.00
37878;BME280;23715;53.652;8.516;2022-07-19T07:56:48;102019.49;;;26.09;100.00
37878;BME280;23715;53.652;8.516;2022-07-19T08:01:49;102017.08;;;26.23;100.00
37878;BME280;23715;53.652;8.516;2022-07-19T08:06:49;102011.59;;;26.37;100.00
37878;BME280;23715;53.652;8.516;2022-07-19T08:11:49;102004.31;;;26.53;100.00
37878;BME280;23715;53.652;8.516;2022-07-19T08:16:50;101994.17;;;26.67;100.00
37878;BME280;23715;53.652;8.516;2022-07-19T08:21:50;101991.52;;;26.76;100.00
37878;BME280;23715;53.652;8.516;2022-07-19T08:26:51;101984.30;;;26.95;100.00
37878;BME280;23715;53.652;8.516;2022-07-19T08:31:51;101989.28;;;27.02;100.00
37878;BME280;23715;53.652;8.516;2022-07-19T08:36:51;101979.78;;;27.41;100.00
37878;BME280;23715;53.652;8.516;2022-07-19T08:41:52;101980.83;;;27.53;100.00
37878;BME280;23715;53.652;8.516;2022-07-19T08:46:53;101974.84;;;27.56;100.00
37878;BME280;23715;53.652;8.516;2022-07-19T08:51:56;101975.41;;;27.78;100.00
37878;BME280;23715;53.652;8.516;2022-07-19T08:56:57;101982.94;;;27.80;100.00
37878;BME280;23715;53.652;8.516;2022-07-19T09:02:15;101987.88;;;28.01;100.00
37878;BME280;23715;53.652;8.516;2022-07-19T09:07:18;101982.00;;;28.07;100.00
37878;BME280;23715;53.652;8.516;2022-07-19T09:12:19;101980.19;;;28.10;100.00
37878;BME280;23715;53.652;8.516;2022-07-19T09:17:19;101972.43;;;28.25;100.00
37878;BME280;23715;53.652;8.516;2022-07-19T09:22:20;101977.11;;;28.40;100.00
37878;BME280;23715;53.652;8.516;2022-07-19T09:27:23;101965.28;;;28.58;100.00
37878;BME280;23715;53.652;8.516;2022-07-19T09:32:25;101971.83;;;28.80;100.00
37878;BME280;23715;53.652;8.516;2022-07-19T09:37:27;101973.86;;;28.91;100.00
37878;BME280;23715;53.652;8.516;2022-07-19T09:42:40;101937.59;;;29.27;100.00
37878;BME280;23715;53.652;8.516;2022-07-19T09:47:46;101937.59;;;29.27;100.00
37878;BME280;23715;53.652;8.516;2022-07-19T09:52:49;101949.13;;;29.61;100.00
37878;BME280;23715;53.652;8.516;2022-07-19T09:57:51;101948.45;;;29.56;100.00
37878;BME280;23715;53.652;8.516;2022-07-19T10:02:54;101941.59;;;29.50;100.00
37878;BME280;23715;53.652;8.516;2022-07-19T10:07:55;101943.84;;;29.59;100.00
37878;BME280;23715;53.652;8.516;2022-07-19T10:12:55;101936.22;;;29.73;100.00
37878;BME280;23715;53.652;8.516;2022-07-19T10:18:16;101927.91;;;29.73;99.36
37878;BME280;23715;53.652;8.516;2022-07-19T10:23:27;101927.38;;;29.95;100.00
37878;BME280;23715;53.652;8.516;2022-07-19T10:28:36;101926.12;;;30.09;100.00
37878;BME280;23715;53.652;8.516;2022-07-19T10:33:37;101922.41;;;30.36;97.70
37878;BME280;23715;53.652;8.516;2022-07-19T10:38:38;101919.68;;;30.39;96.89
37878;BME280;23715;53.652;8.516;2022-07-19T10:43:40;101916.22;;;30.55;100.00
37878;BME280;23715;53.652;8.516;2022-07-19T10:48:50;101904.64;;;30.59;100.00
37878;BME280;23715;53.652;8.516;2022-07-19T10:54:03;101901.66;;;30.86;100.00
37878;BME280;23715;53.652;8.516;2022-07-19T10:59:12;101897.78;;;30.97;100.00
37878;BME280;23715;53.652;8.516;2022-07-19T11:04:27;101892.96;;;31.18;100.00
37878;BME280;23715;53.652;8.516;2022-07-19T11:09:38;101888.87;;;31.09;92.38
37878;BME280;23715;53.652;8.516;2022-07-19T11:14:42;101891.77;;;31.14;93.44
37878;BME280;23715;53.652;8.516;2022-07-19T11:19:55;101893.32;;;31.22;90.07
37878;BME280;23715;53.652;8.516;2022-07-19T11:24:40;101894.48;;;31.38;96.03
37878;BME280;23715;53.652;8.516;2022-07-19T11:29:58;101882.51;;;31.49;91.09
37878;BME280;23715;53.652;8.516;2022-07-19T11:35:02;101881.23;;;31.54;92.82
37878;BME280;23715;53.652;8.516;2022-07-19T11:40:04;101884.71;;;31.61;93.73
37878;BME280;23715;53.652;8.516;2022-07-19T11:45:10;101886.53;;;31.70;85.38
37878;BME280;23715;53.652;8.516;2022-07-19T11:50:12;101887.89;;;31.82;85.36
37878;BME280;23715;53.652;8.516;2022-07-19T11:55:15;101882.56;;;32.09;89.68
37878;BME280;23715;53.652;8.516;2022-07-19T12:00:16;101882.78;;;32.22;86.28
37878;BME280;23715;53.652;8.516;2022-07-19T12:05:17;101887.70;;;32.34;81.85
37878;BME280;23715;53.652;8.516;2022-07-19T12:10:35;101874.34;;;32.51;89.84
37878;BME280;23715;53.652;8.516;2022-07-19T12:15:56;101877.59;;;32.45;84.01
37878;BME280;23715;53.652;8.516;2022-07-19T12:21:22;101875.64;;;32.45;84.28
37878;BME280;23715;53.652;8.516;2022-07-19T12:26:19;101867.86;;;32.62;84.81
37878;BME280;23715;53.652;8.516;2022-07-19T12:31:19;101864.72;;;32.75;83.48
37878;BME280;23715;53.652;8.516;2022-07-19T12:36:33;101868.17;;;32.82;79.21
37878;BME280;23715;53.652;8.516;2022-07-19T12:41:34;101853.40;;;33.04;82.87
37878;BME280;23715;53.652;8.516;2022-07-19T12:46:35;101852.95;;;33.32;80.43
37878;BME280;23715;53.652;8.516;2022-07-19T12:51:35;101850.00;;;33.19;84.56
37878;BME280;23715;53.652;8.516;2022-07-19T12:56:38;101846.41;;;33.45;87.92
37878;BME280;23715;53.652;8.516;2022-07-19T13:01:38;101852.48;;;33.40;82.61
37878;BME280;23715;53.652;8.516;2022-07-19T13:06:39;101850.58;;;33.43;83.57
37878;BME280;23715;53.652;8.516;2022-07-19T13:11:39;101852.08;;;33.56;83.00
37878;BME280;23715;53.652;8.516;2022-07-19T13:16:40;101842.49;;;33.69;83.76
37878;BME280;23715;53.652;8.516;2022-07-19T13:21:40;101840.33;;;33.73;87.40
37878;BME280;23715;53.652;8.516;2022-07-19T13:26:41;101838.95;;;33.76;86.29
37878;BME280;23715;53.652;8.516;2022-07-19T13:31:41;101831.64;;;33.70;85.65
37878;BME280;23715;53.652;8.516;2022-07-19T13:36:41;101833.61;;;33.72;84.80
37878;BME280;23715;53.652;8.516;2022-07-19T13:41:42;101819.42;;;33.76;80.08
37878;BME280;23715;53.652;8.516;2022-07-19T13:46:42;101814.72;;;33.79;79.93
37878;BME280;23715;53.652;8.516;2022-07-19T13:51:43;101807.24;;;33.87;77.92
37878;BME280;23715;53.652;8.516;2022-07-19T13:56:43;101802.34;;;34.02;78.34
37878;BME280;23715;53.652;8.516;2022-07-19T14:01:44;101796.20;;;34.02;78.54
37878;BME280;23715;53.652;8.516;2022-07-19T14:06:44;101795.13;;;34.06;79.34
37878;BME280;23715;53.652;8.516;2022-07-19T14:11:45;101801.94;;;33.88;78.11
37878;BME280;23715;53.652;8.516;2022-07-19T14:16:45;101794.49;;;33.96;76.38
37878;BME280;23715;53.652;8.516;2022-07-19T14:21:47;101768.44;;;33.83;75.97
37878;BME280;23715;53.652;8.516;2022-07-19T14:26:48;101788.03;;;33.93;78.98
37878;BME280;23715;53.652;8.516;2022-07-19T14:31:49;101776.16;;;34.11;80.75
37878;BME280;23715;53.652;8.516;2022-07-19T14:36:50;101765.86;;;34.11;84.66
37878;BME280;23715;53.652;8.516;2022-07-19T14:41:50;101769.48;;;34.12;81.92
37878;BME280;23715;53.652;8.516;2022-07-19T14:46:55;101762.72;;;34.02;78.90
37878;BME280;23715;53.652;8.516;2022-07-19T14:51:58;101758.84;;;34.09;81.11
37878;BME280;23715;53.652;8.516;2022-07-19T14:56:59;101756.75;;;34.23;77.72
37878;BME280;23715;53.652;8.516;2022-07-19T15:02:00;101748.64;;;34.22;77.85
37878;BME280;23715;53.652;8.516;2022-07-19T15:07:00;101740.05;;;34.31;81.94
37878;BME280;23715;53.652;8.516;2022-07-19T15:12:02;101742.83;;;34.29;79.76
37878;BME280;23715;53.652;8.516;2022-07-19T15:17:04;101737.78;;;34.28;77.19
37878;BME280;23715;53.652;8.516;2022-07-19T15:22:04;101724.42;;;34.30;75.38
37878;BME280;23715;53.652;8.516;2022-07-19T15:27:05;101725.03;;;34.42;81.17
37878;BME280;23715;53.652;8.516;2022-07-19T15:32:12;101722.77;;;34.37;79.30
37878;BME280;23715;53.652;8.516;2022-07-19T15:37:09;101722.53;;;34.49;84.96
37878;BME280;23715;53.652;8.516;2022-07-19T15:42:10;101719.48;;;34.48;88.95
37878;BME280;23715;53.652;8.516;2022-07-19T15:47:10;101719.97;;;34.39;86.12
37878;BME280;23715;53.652;8.516;2022-07-19T15:52:12;101713.59;;;34.47;89.84
37878;BME280;23715;53.652;8.516;2022-07-19T15:57:17;101711.13;;;34.58;91.22
37878;BME280;23715;53.652;8.516;2022-07-19T16:02:14;101706.08;;;34.50;92.69
37878;BME280;23715;53.652;8.516;2022-07-19T16:07:14;101694.37;;;34.55;88.95
37878;BME280;23715;53.652;8.516;2022-07-19T16:12:16;101684.59;;;34.58;92.64
37878;BME280;23715;53.652;8.516;2022-07-19T16:17:17;101681.21;;;34.51;90.91
37878;BME280;23715;53.652;8.516;2022-07-19T16:22:18;101681.00;;;34.63;92.33
37878;BME280;23715;53.652;8.516;2022-07-19T16:27:20;101670.33;;;34.54;93.31
37878;BME280;23715;53.652;8.516;2022-07-19T16:32:20;101664.19;;;34.47;94.05
37878;BME280;23715;53.652;8.516;2022-07-19T16:37:21;101655.75;;;34.37;92.15
37878;BME280;23715;53.652;8.516;2022-07-19T16:42:21;101654.29;;;34.24;95.69
37878;BME280;23715;53.652;8.516;2022-07-19T16:47:22;101647.80;;;34.13;94.17
37878;BME280;23715;53.652;8.516;2022-07-19T16:52:22;101644.98;;;34.08;94.31
37878;BME280;23715;53.652;8.516;2022-07-19T16:57:22;101634.22;;;33.84;98.28
37878;BME280;23715;53.652;8.516;2022-07-19T17:02:23;101630.69;;;33.59;97.25
37878;BME280;23715;53.652;8.516;2022-07-19T17:07:23;101630.69;;;33.59;97.25
37878;BME280;23715;53.652;8.516;2022-07-19T17:12:24;101639.75;;;33.72;98.93
37878;BME280;23715;53.652;8.516;2022-07-19T17:17:24;101639.09;;;33.62;100.00
37878;BME280;23715;53.652;8.516;2022-07-19T17:22:24;101637.28;;;33.43;100.00
37878;BME280;23715;53.652;8.516;2022-07-19T17:27:25;101633.05;;;33.38;100.00
37878;BME280;23715;53.652;8.516;2022-07-19T17:32:26;101632.86;;;33.17;100.00
37878;BME280;23715;53.652;8.516;2022-07-19T17:37:26;101619.66;;;33.10;100.00
37878;BME280;23715;53.652;8.516;2022-07-19T17:42:32;101618.45;;;32.98;100.00
37878;BME280;23715;53.652;8.516;2022-07-19T17:47:39;101615.91;;;32.94;100.00
37878;BME280;23715;53.652;8.516;2022-07-19T17:52:39;101618.49;;;32.76;100.00
37878;BME280;23715;53.652;8.516;2022-07-19T17:57:40;101613.34;;;32.63;100.00
37878;BME280;23715;53.652;8.516;2022-07-19T18:02:41;101613.20;;;32.53;100.00
37878;BME280;23715;53.652;8.516;2022-07-19T18:07:41;101614.19;;;32.41;100.00
37878;BME280;23715;53.652;8.516;2022-07-19T18:12:41;101613.61;;;32.39;100.00
37878;BME280;23715;53.652;8.516;2022-07-19T18:17:42;101612.38;;;32.30;100.00
37878;BME280;23715;53.652;8.516;2022-07-19T18:22:43;101611.55;;;32.29;100.00
37878;BME280;23715;53.652;8.516;2022-07-19T18:27:43;101619.14;;;32.15;100.00
37878;BME280;23715;53.652;8.516;2022-07-19T18:32:45;101617.69;;;31.93;100.00
37878;BME280;23715;53.652;8.516;2022-07-19T18:37:46;101624.62;;;31.90;100.00
37878;BME280;23715;53.652;8.516;2022-07-19T18:42:46;101621.28;;;31.90;100.00
37878;BME280;23715;53.652;8.516;2022-07-19T18:47:47;101623.18;;;31.51;100.00
37878;BME280;23715;53.652;8.516;2022-07-19T18:52:48;101631.48;;;30.88;100.00
37878;BME280;23715;53.652;8.516;2022-07-19T18:57:48;101630.86;;;30.55;100.00
37878;BME280;23715;53.652;8.516;2022-07-19T19:02:49;101627.70;;;30.11;100.00
37878;BME280;23715;53.652;8.516;2022-07-19T19:07:49;101631.45;;;29.81;100.00
37878;BME280;23715;53.652;8.516;2022-07-19T19:12:50;101630.52;;;29.66;100.00
37878;BME280;23715;53.652;8.516;2022-07-19T19:17:50;101630.66;;;29.38;100.00
37878;BME280;23715;53.652;8.516;2022-07-19T19:22:51;101634.47;;;29.14;100.00
37878;BME280;23715;53.652;8.516;2022-07-19T19:27:54;101638.10;;;29.14;100.00
37878;BME280;23715;53.652;8.516;2022-07-19T19:32:55;101638.91;;;28.94;100.00
37878;BME280;23715;53.652;8.516;2022-07-19T19:37:55;101635.61;;;28.85;100.00
37878;BME280;23715;53.652;8.516;2022-07-19T19:42:56;101636.62;;;28.81;100.00
37878;BME280;23715;53.652;8.516;2022-07-19T19:47:57;101646.13;;;28.46;100.00
37878;BME280;23715;53.652;8.516;2022-07-19T19:52:57;101637.83;;;28.18;100.00
37878;BME280;23715;53.652;8.516;2022-07-19T19:57:58;101639.00;;;27.85;100.00
37878;BME280;23715;53.652;8.516;2022-07-19T20:02:59;101637.08;;;27.52;100.00
37878;BME280;23715;53.652;8.516;2022-07-19T20:08:05;101631.56;;;27.52;100.00
37878;BME280;23715;53.652;8.516;2022-07-19T20:13:05;101632.98;;;27.36;100.00
37878;BME280;23715;53.652;8.516;2022-07-19T20:18:06;101633.67;;;27.40;100.00
37878;BME280;23715;53.652;8.516;2022-07-19T20:23:06;101632.07;;;27.26;100.00
37878;BME280;23715;53.652;8.516;2022-07-19T20:28:07;101647.73;;;27.00;100.00
37878;BME280;23715;53.652;8.516;2022-07-19T20:33:07;101645.35;;;26.88;100.00
37878;BME280;23715;53.652;8.516;2022-07-19T20:38:08;101639.53;;;26.87;100.00
37878;BME280;23715;53.652;8.516;2022-07-19T20:43:09;101632.09;;;26.72;100.00
37878;BME280;23715;53.652;8.516;2022-07-19T20:48:09;101624.45;;;26.67;100.00
37878;BME280;23715;53.652;8.516;2022-07-19T20:53:09;101625.00;;;26.66;100.00
37878;BME280;23715;53.652;8.516;2022-07-19T20:58:10;101621.76;;;26.76;100.00
37878;BME280;23715;53.652;8.516;2022-07-19T21:03:10;101632.31;;;26.86;100.00
37878;BME280;23715;53.652;8.516;2022-07-19T21:08:11;101629.28;;;26.78;100.00
37878;BME280;23715;53.652;8.516;2022-07-19T21:13:11;101633.83;;;26.59;100.00
37878;BME280;23715;53.652;8.516;2022-07-19T21:18:11;101635.87;;;26.48;100.00
37878;BME280;23715;53.652;8.516;2022-07-19T21:23:12;101635.73;;;26.52;100.00
37878;BME280;23715;53.652;8.516;2022-07-19T21:28:12;101644.89;;;26.46;100.00
37878;BME280;23715;53.652;8.516;2022-07-19T21:33:13;101634.26;;;26.56;100.00
37878;BME280;23715;53.652;8.516;2022-07-19T21:38:14;101636.42;;;26.18;100.00
37878;BME280;23715;53.652;8.516;2022-07-19T21:43:16;101640.23;;;26.17;100.00
37878;BME280;23715;53.652;8.516;2022-07-19T21:48:16;101635.70;;;26.07;100.00
37878;BME280;23715;53.652;8.516;2022-07-19T21:53:17;101637.50;;;26.10;100.00
37878;BME280;23715;53.652;8.516;2022-07-19T21:58:17;101633.37;;;26.10;100.00
37878;BME280;23715;53.652;8.516;2022-07-19T22:03:17;101643.23;;;26.02;100.00
37878;BME280;23715;53.652;8.516;2022-07-19T22:08:18;101643.98;;;26.00;100.00
37878;BME280;23715;53.652;8.516;2022-07-19T22:13:18;101637.61;;;25.80;100.00
37878;BME280;23715;53.652;8.516;2022-07-19T22:18:18;101642.39;;;25.68;100.00
37878;BME280;23715;53.652;8.516;2022-07-19T22:23:21;101639.64;;;25.55;100.00
37878;BME280;23715;53.652;8.516;2022-07-19T22:28:22;101642.19;;;25.57;100.00
37878;BME280;23715;53.652;8.516;2022-07-19T22:33:22;101635.75;;;25.40;100.00
37878;BME280;23715;53.652;8.516;2022-07-19T22:38:23;101630.02;;;25.35;100.00
37878;BME280;23715;53.652;8.516;2022-07-19T22:43:23;101632.84;;;25.18;100.00
37878;BME280;23715;53.652;8.516;2022-07-19T22:48:24;101634.91;;;24.96;100.00
37878;BME280;23715;53.652;8.516;2022-07-19T22:53:24;101626.12;;;24.96;100.00
37878;BME280;23715;53.652;8.516;2022-07-19T22:58:24;101626.92;;;24.83;100.00
37878;BME280;23715;53.652;8.516;2022-07-19T23:03:25;101634.64;;;24.70;100.00
37878;BME280;23715;53.652;8.516;2022-07-19T23:08:26;101631.19;;;24.86;100.00
37878;BME280;23715;53.652;8.516;2022-07-19T23:13:26;101627.22;;;25.08;100.00
37878;BME280;23715;53.652;8.516;2022-07-19T23:18:26;101629.81;;;24.86;100.00
37878;BME280;23715;53.652;8.516;2022-07-19T23:23:27;101622.16;;;24.81;100.00
37878;BME280;23715;53.652;8.516;2022-07-19T23:28:28;101618.84;;;24.99;100.00
37878;BME280;23715;53.652;8.516;2022-07-19T23:33:28;101613.47;;;25.22;100.00
37878;BME280;23715;53.652;8.516;2022-07-19T23:38:28;101611.25;;;25.21;100.00
37878;BME280;23715;53.652;8.516;2022-07-19T23:43:29;101609.05;;;25.27;100.00
37878;BME280;23715;53.652;8.516;2022-07-19T23:48:29;101613.06;;;25.25;100.00
37878;BME280;23715;53.652;8.516;2022-07-19T23:53:30;101615.63;;;25.33;100.00
37878;BME280;23715;53.652;8.516;2022-07-19T23:58:30;101613.06;;;25.25;100.00
